Time;durP1;ratioP1;P1;durP2;ratioP2;P2;SDS_P1;SDS_P2;PMS_P1;PMS_P2;Temp;Humidity;BMP_temperature;BMP_pressure;BME280_temperature;BME280_humidity;BME280_pressure;Samples;Min_cycle;Max_cycle;Signal;HPM_P1;HPM_P2
2022/12/16 00:03:49;;;;;;;22.30;14.60;;;;;;;-4.13;57.08;98808.50;10393316;28;20847;-65
2022/12/16 00:08:52;;;;;;;22.57;14.67;;;;;;;-3.38;56.17;98771.44;10397862;28;20236;-65
2022/12/16 00:13:55;;;;;;;22.87;14.97;;;;;;;-3.82;56.55;98817.53;10402085;28;20239;-65
2022/12/16 00:18:57;;;;;;;20.53;13.70;;;;;;;-3.42;55.57;98794.41;10403450;28;20319;-65
2022/12/16 00:23:58;;;;;;;23.30;14.50;;;;;;;-4.06;56.88;98843.69;10403585;28;20238;-64
2022/12/16 00:29:00;;;;;;;19.40;13.80;;;;;;;-3.74;55.96;98828.25;10404704;28;20235;-65
2022/12/16 00:34:01;;;;;;;18.87;13.50;;;;;;;-4.01;57.34;98831.13;10401366;28;20238;-64
2022/12/16 00:39:03;;;;;;;19.80;13.37;;;;;;;-3.86;56.60;98834.38;10403696;28;20239;-65
2022/12/16 00:44:05;;;;;;;18.00;13.07;;;;;;;-4.91;57.10;98897.56;10403904;28;20257;-64
2022/12/16 00:49:06;;;;;;;17.23;12.53;;;;;;;-4.77;57.11;98898.38;10397963;28;21597;-65
2022/12/16 00:54:08;;;;;;;20.57;13.07;;;;;;;-3.83;54.90;98847.22;10403573;28;20279;-65
2022/12/16 00:59:10;;;;;;;19.17;13.13;;;;;;;-3.18;54.11;98819.63;10394300;28;20688;-64
2022/12/16 01:04:11;;;;;;;20.97;13.53;;;;;;;-4.10;54.33;98907.59;10401598;28;20235;-66
2022/12/16 01:09:13;;;;;;;21.37;11.97;;;;;;;-3.41;54.00;98845.75;10402124;28;20335;-65
2022/12/16 01:14:15;;;;;;;18.57;12.40;;;;;;;-2.97;52.66;98845.91;10402164;28;20226;-66
2022/12/16 01:19:16;;;;;;;17.27;11.50;;;;;;;-3.62;53.07;98892.69;10402529;28;20713;-66
2022/12/16 01:24:18;;;;;;;17.30;11.07;;;;;;;-3.36;52.98;98878.59;10401286;28;20714;-66
2022/12/16 01:29:20;;;;;;;17.07;11.50;;;;;;;-4.18;53.38;98953.41;10402636;28;20228;-66
2022/12/16 01:34:22;;;;;;;15.30;11.67;;;;;;;-3.59;53.87;98891.59;10400268;28;20234;-64
2022/12/16 01:39:26;;;;;;;17.87;11.50;;;;;;;-3.16;52.75;98877.91;10400059;28;20231;-64
2022/12/16 01:44:27;;;;;;;15.83;10.93;;;;;;;-3.43;52.69;98902.59;10401137;28;20695;-64
2022/12/16 01:49:35;;;;;;;15.73;11.93;;;;;;;-2.82;52.18;98862.22;10400860;28;20236;-63
2022/12/16 01:54:47;;;;;;;17.63;10.70;;;;;;;-3.52;52.60;98923.38;10401272;28;20295;-64
2022/12/16 01:59:51;;;;;;;17.33;11.23;;;;;;;-3.70;53.15;98930.81;10390455;28;20251;-64
2022/12/16 02:10:15;;;;;;;15.73;11.40;;;;;;;-3.51;52.76;98935.50;10399458;28;20253;-64
2022/12/16 02:15:29;;;;;;;18.07;11.40;;;;;;;-3.48;52.36;98940.53;10398752;28;20236;-64
2022/12/16 02:20:48;;;;;;;19.37;12.07;;;;;;;-3.50;52.16;98943.25;10398724;28;20253;-63
2022/12/16 02:26:14;;;;;;;17.40;11.03;;;;;;;-3.54;52.31;98952.25;10400483;28;20242;-63
2022/12/16 02:31:48;;;;;;;16.43;11.07;;;;;;;-4.60;53.50;99019.94;10397200;28;20275;-63
2022/12/16 02:37:22;;;;;;;14.47;10.30;;;;;;;-3.49;52.32;98980.69;10396982;28;20744;-64
2022/12/16 02:42:26;;;;;;;15.10;10.73;;;;;;;-3.89;52.97;99002.75;10395076;28;20234;-64
2022/12/16 02:47:28;;;;;;;14.83;10.67;;;;;;;-3.71;52.58;99003.19;10397632;28;20230;-64
2022/12/16 02:52:33;;;;;;;14.97;11.00;;;;;;;-3.41;52.19;98983.59;10399170;28;20741;-64
2022/12/16 02:57:58;;;;;;;18.50;11.20;;;;;;;-3.35;51.78;98997.97;10391816;28;20236;-64
2022/12/16 03:03:10;;;;;;;14.73;10.63;;;;;;;-3.09;51.86;98981.16;10395477;28;20236;-68
2022/12/16 03:08:19;;;;;;;15.07;10.43;;;;;;;-2.79;51.53;98969.34;10397292;28;20756;-68
2022/12/16 03:13:21;;;;;;;14.23;11.10;;;;;;;-3.50;52.19;99008.66;10398002;28;20233;-66
2022/12/16 03:18:24;;;;;;;15.60;9.93;;;;;;;-3.65;51.77;99038.53;10397420;28;20240;-66
2022/12/16 03:23:35;;;;;;;14.73;10.73;;;;;;;-3.43;52.00;99027.34;10397238;28;20972;-66
2022/12/16 03:29:03;;;;;;;20.03;10.07;;;;;;;-3.33;51.56;99024.88;10398003;28;20251;-67
2022/12/16 03:34:20;;;;;;;16.40;11.40;;;;;;;-4.48;52.62;99100.06;10391343;28;20653;-67
2022/12/16 03:39:23;;;;;;;15.80;11.00;;;;;;;-3.50;51.86;99040.03;10394302;28;20417;-67
2022/12/16 03:44:25;;;;;;;15.70;10.40;;;;;;;-3.83;52.58;99067.66;10398149;28;20224;-66
2022/12/16 03:49:27;;;;;;;16.83;11.90;;;;;;;-3.26;51.44;99042.63;10405186;28;21060;-66
2022/12/16 03:54:28;;;;;;;15.77;10.43;;;;;;;-3.89;52.54;99075.97;10404534;28;20262;-67
2022/12/16 03:59:30;;;;;;;13.93;10.77;;;;;;;-3.94;51.99;99104.19;10396264;28;20746;-66
2022/12/16 04:04:32;;;;;;;16.23;11.07;;;;;;;-3.89;52.98;99082.94;10403962;28;20320;-67
2022/12/16 04:09:33;;;;;;;19.27;9.30;;;;;;;-3.15;51.16;99054.94;10403333;28;20243;-66
2022/12/16 04:25:19;;;;;;;12.17;9.97;;;;;;;-3.02;49.93;99086.28;10401377;28;20732;-66
2022/12/16 04:30:21;;;;;;;16.77;10.57;;;;;;;-3.56;50.96;99118.13;10403084;28;20944;-66
